createdAt,value
2022-08-09T00:04:34.340Z,70.58
2022-08-09T00:09:39.130Z,70.68
2022-08-09T00:14:42.199Z,71.02
2022-08-09T00:19:48.696Z,71.37
2022-08-09T00:24:55.803Z,71.49
2022-08-09T00:30:23.515Z,71.74
2022-08-09T00:35:21.796Z,71.80
2022-08-09T00:40:30.356Z,71.85
2022-08-09T00:45:35.205Z,72.16
2022-08-09T00:50:38.576Z,72.48
2022-08-09T00:56:04.862Z,72.43
2022-08-09T01:01:19.333Z,72.60
2022-08-09T01:06:54.820Z,73.04
2022-08-09T01:12:12.811Z,73.08
2022-08-09T01:17:23.633Z,73.55
2022-08-09T01:23:00.355Z,73.63
2022-08-09T01:28:05.743Z,73.81
2022-08-09T01:33:10.262Z,73.66
2022-08-09T01:38:24.730Z,73.88
2022-08-09T01:43:29.311Z,73.72
2022-08-09T01:48:38.032Z,73.80
2022-08-09T01:53:42.665Z,74.04
2022-08-09T01:58:49.060Z,74.38
2022-08-09T02:03:56.554Z,74.26
2022-08-09T02:09:00.004Z,74.29
2022-08-09T02:14:07.524Z,74.62
2022-08-09T02:19:11.225Z,74.75
2022-08-09T02:24:26.385Z,75.12
2022-08-09T02:29:35.454Z,75.12
2022-08-09T02:34:51.967Z,75.36
2022-08-09T02:40:10.371Z,75.57
2022-08-09T02:45:34.269Z,75.70
2022-08-09T02:51:01.777Z,76.83
2022-08-09T02:56:07.582Z,76.78
2022-08-09T03:01:15.079Z,76.88
2022-08-09T03:06:27.537Z,77.18
2022-08-09T03:12:05.695Z,77.13
2022-08-09T03:16:55.657Z,77.15
2022-08-09T03:22:03.083Z,77.24
2022-08-09T03:27:11.960Z,77.57
2022-08-09T03:32:18.048Z,77.53
2022-08-09T03:37:55.242Z,77.25
2022-08-09T03:42:47.157Z,77.01
2022-08-09T03:47:50.313Z,77.31
2022-08-09T03:52:59.842Z,77.22
2022-08-09T03:58:14.961Z,77.02
2022-08-09T04:03:35.607Z,77.22
2022-08-09T04:08:46.599Z,77.46
2022-08-09T04:14:53.981Z,77.48
2022-08-09T04:19:15.843Z,78.04
2022-08-09T04:24:33.291Z,78.55
2022-08-09T04:29:36.149Z,78.69
2022-08-09T04:34:54.035Z,78.78
2022-08-09T04:39:57.353Z,78.97
2022-08-09T04:45:01.460Z,78.74
2022-08-09T04:50:05.275Z,78.47
2022-08-09T04:55:13.505Z,78.19
2022-08-09T05:00:17.396Z,77.51
2022-08-09T05:05:32.390Z,77.24
2022-08-09T05:10:45.072Z,76.53
2022-08-09T05:15:56.446Z,76.21
2022-08-09T05:21:01.231Z,74.95
2022-08-09T05:26:04.542Z,74.28
2022-08-09T05:31:09.377Z,73.65
2022-08-09T05:36:15.570Z,73.26
2022-08-09T05:41:18.669Z,72.73
2022-08-09T05:46:21.429Z,72.41
2022-08-09T05:51:42.743Z,71.25
2022-08-09T05:56:54.729Z,69.32
2022-08-09T06:01:58.920Z,69.35
2022-08-09T06:07:03.873Z,69.44
2022-08-09T06:12:07.024Z,69.00
2022-08-09T06:17:12.042Z,68.13
2022-08-09T06:22:17.412Z,67.43
2022-08-09T06:27:20.669Z,67.16
2022-08-09T06:33:00.112Z,65.59
2022-08-09T06:38:05.247Z,64.27
2022-08-09T06:43:10.592Z,62.01
2022-08-09T06:48:16.564Z,61.23
2022-08-09T06:53:20.171Z,60.58
2022-08-09T07:00:47.023Z,58.50
2022-08-09T07:03:52.547Z,56.99
2022-08-09T07:08:57.680Z,57.08
2022-08-09T07:14:04.910Z,55.58
2022-08-09T07:19:15.570Z,55.20
2022-08-09T07:24:21.421Z,54.91
2022-08-09T07:29:42.507Z,54.50
2022-08-09T07:34:46.004Z,54.00
2022-08-09T07:39:50.127Z,53.44
2022-08-09T07:44:56.271Z,52.83
2022-08-09T07:50:07.846Z,52.36
2022-08-09T07:55:11.853Z,52.38
2022-08-09T08:00:35.606Z,52.45
2022-08-09T08:05:57.868Z,52.01
2022-08-09T08:11:03.358Z,51.45
2022-08-09T08:16:31.365Z,50.41
2022-08-09T08:21:39.479Z,50.22
2022-08-09T08:26:56.173Z,50.30
2022-08-09T08:32:03.927Z,49.19
2022-08-09T08:37:14.332Z,48.51
2022-08-09T08:42:24.375Z,47.58
2022-08-09T08:47:38.534Z,47.19
2022-08-09T08:52:58.340Z,47.11
2022-08-09T08:58:03.279Z,45.61
2022-08-09T09:03:20.735Z,45.90
2022-08-09T09:08:29.915Z,46.08
2022-08-09T09:13:55.560Z,45.63
2022-08-09T09:19:36.623Z,45.30
2022-08-09T09:24:34.686Z,44.28
2022-08-09T09:30:12.089Z,44.23
2022-08-09T09:35:10.735Z,44.06
2022-08-09T09:40:16.572Z,43.42
2022-08-09T09:45:26.607Z,42.43
2022-08-09T09:50:51.325Z,42.24
2022-08-09T09:56:04.579Z,41.89
2022-08-09T10:01:37.359Z,40.47
2022-08-09T10:06:51.793Z,41.32
2022-08-09T10:12:14.844Z,41.17
2022-08-09T10:17:51.308Z,40.17
2022-08-09T10:22:58.523Z,40.17
2022-08-09T10:28:04.123Z,40.15
2022-08-09T10:33:08.105Z,39.59
2022-08-09T10:38:33.994Z,39.37
2022-08-09T10:43:50.546Z,38.73
2022-08-09T10:49:50.921Z,37.55
2022-08-09T10:55:22.827Z,37.55
2022-08-09T11:00:29.478Z,38.01
2022-08-09T11:05:32.400Z,37.81
2022-08-09T11:10:47.162Z,37.90
2022-08-09T11:16:41.223Z,37.31
2022-08-09T11:21:57.390Z,37.90
2022-08-09T11:28:05.486Z,37.54
2022-08-09T11:33:17.750Z,37.87
2022-08-09T11:38:32.947Z,37.77
2022-08-09T11:43:46.687Z,38.45
2022-08-09T11:48:58.098Z,38.57
2022-08-09T11:54:28.716Z,38.75
2022-08-09T11:59:37.814Z,38.88
2022-08-09T12:04:41.396Z,39.73
2022-08-09T12:09:50.718Z,38.79
2022-08-09T12:15:08.318Z,38.89
2022-08-09T12:20:22.948Z,39.21
2022-08-09T12:25:36.794Z,38.93
2022-08-09T12:30:42.096Z,39.27
2022-08-09T12:35:45.746Z,39.47
2022-08-09T12:40:52.251Z,38.56
2022-08-09T12:46:00.308Z,38.51
2022-08-09T12:51:04.626Z,39.18
2022-08-09T12:56:34.810Z,39.07
2022-08-09T13:02:01.193Z,39.26
2022-08-09T13:07:51.015Z,39.80
2022-08-09T13:13:08.986Z,39.37
2022-08-09T13:18:17.506Z,39.26
2022-08-09T13:24:16.797Z,39.21
2022-08-09T13:29:42.028Z,39.43
2022-08-09T13:34:47.706Z,39.27
2022-08-09T13:41:52.525Z,38.97
2022-08-09T13:45:15.819Z,39.09
2022-08-09T13:50:30.934Z,38.05
2022-08-09T13:55:34.983Z,37.74
2022-08-09T14:00:48.209Z,37.45
2022-08-09T14:05:59.171Z,38.12
2022-08-09T14:11:03.059Z,37.63
2022-08-09T14:16:17.747Z,37.12
2022-08-09T14:21:24.172Z,37.17
2022-08-09T14:26:31.800Z,37.28
2022-08-09T14:31:49.670Z,37.22
2022-08-09T14:36:53.206Z,37.40
2022-08-09T14:41:56.751Z,36.79
2022-08-09T14:47:12.491Z,36.82
2022-08-09T14:52:19.987Z,37.82
2022-08-09T14:57:31.855Z,37.85
2022-08-09T15:02:47.255Z,37.74
2022-08-09T15:07:54.667Z,37.73
2022-08-09T15:13:01.701Z,37.21
2022-08-09T15:18:06.709Z,37.36
2022-08-09T15:24:01.003Z,37.31
2022-08-09T15:28:34.507Z,37.68
2022-08-09T15:34:04.375Z,37.51
2022-08-09T15:39:00.941Z,37.02
2022-08-09T15:44:04.195Z,36.43
2022-08-09T15:49:21.239Z,36.04
2022-08-09T15:54:30.088Z,36.09
2022-08-09T15:59:37.977Z,36.53
2022-08-09T16:04:42.679Z,37.36
2022-08-09T16:10:02.223Z,36.53
2022-08-09T16:16:04.628Z,36.02
2022-08-09T16:20:33.117Z,36.19
2022-08-09T16:25:39.602Z,36.19
2022-08-09T16:30:44.783Z,36.74
2022-08-09T16:36:01.893Z,36.58
2022-08-09T16:41:08.050Z,36.88
2022-08-09T16:46:21.374Z,36.84
2022-08-09T16:51:24.594Z,37.03
2022-08-09T16:56:27.672Z,37.47
2022-08-09T17:01:35.465Z,37.79
2022-08-09T17:08:41.233Z,38.36
2022-08-09T17:12:02.158Z,38.96
2022-08-09T17:17:23.306Z,39.16
2022-08-09T17:22:31.142Z,39.15
2022-08-09T17:27:38.285Z,39.65
2022-08-09T17:32:46.279Z,40.00
2022-08-09T17:38:02.497Z,40.44
2022-08-09T17:43:34.202Z,40.34
2022-08-09T17:48:40.379Z,40.99
2022-08-09T17:53:48.165Z,41.69
2022-08-09T17:59:03.108Z,42.54
2022-08-09T18:04:06.344Z,42.76
2022-08-09T18:09:12.080Z,42.50
2022-08-09T18:14:21.324Z,42.44
2022-08-09T18:20:54.656Z,43.37
2022-08-09T18:24:47.121Z,43.32
2022-08-09T18:30:35.529Z,43.44
2022-08-09T18:35:12.874Z,42.67
2022-08-09T18:40:19.280Z,42.76
2022-08-09T18:46:47.206Z,41.78
2022-08-09T18:50:53.786Z,41.25
2022-08-09T18:56:05.484Z,40.75
2022-08-09T19:01:08.607Z,39.80
2022-08-09T19:06:14.608Z,38.62
2022-08-09T19:11:18.072Z,38.08
2022-08-09T19:16:35.944Z,37.61
2022-08-09T19:21:52.457Z,37.12
2022-08-09T19:27:02.595Z,37.14
2022-08-09T19:32:07.741Z,37.09
2022-08-09T19:37:17.143Z,37.24
2022-08-09T19:42:20.510Z,36.84
2022-08-09T19:47:31.209Z,36.51
2022-08-09T19:52:51.568Z,36.81
2022-08-09T19:57:55.665Z,36.84
2022-08-09T20:04:10.757Z,37.22
2022-08-09T20:08:24.805Z,37.10
2022-08-09T20:13:36.870Z,37.60
2022-08-09T20:19:03.761Z,37.75
2022-08-09T20:24:04.759Z,37.91
2022-08-09T20:29:10.338Z,38.27
2022-08-09T20:34:22.058Z,38.50
2022-08-09T20:40:13.725Z,38.72
2022-08-09T20:44:50.901Z,38.51
2022-08-09T20:50:14.743Z,38.73
2022-08-09T20:55:47.159Z,38.64
2022-08-09T21:01:02.451Z,38.90
2022-08-09T21:06:20.861Z,39.27
2022-08-09T21:16:48.409Z,40.24
2022-08-09T21:21:56.686Z,40.17
2022-08-09T21:27:50.416Z,40.31
2022-08-09T21:32:33.649Z,40.90
2022-08-09T21:37:47.282Z,41.07
2022-08-09T21:43:02.030Z,41.35
2022-08-09T21:48:07.185Z,41.75
2022-08-09T21:53:19.909Z,41.91
2022-08-09T21:58:33.552Z,42.61
2022-08-09T22:03:59.008Z,42.52
2022-08-09T22:09:01.926Z,42.74
2022-08-09T22:14:05.454Z,42.97
2022-08-09T22:19:25.477Z,43.02
2022-08-09T22:24:39.850Z,43.25
2022-08-09T22:30:03.770Z,42.50
2022-08-09T22:36:01.924Z,42.50
2022-08-09T22:40:30.657Z,42.95
2022-08-09T22:48:15.521Z,43.02
2022-08-09T22:51:00.277Z,43.27
2022-08-09T22:56:30.604Z,42.91
2022-08-09T23:01:26.664Z,42.74
2022-08-09T23:06:51.018Z,42.78
2022-08-09T23:11:53.897Z,42.99
2022-08-09T23:16:57.017Z,43.57
2022-08-09T23:21:59.866Z,43.65
2022-08-09T23:27:02.684Z,43.71
2022-08-09T23:32:05.704Z,44.09
2022-08-09T23:37:09.261Z,44.32
2022-08-09T23:42:12.107Z,43.93
2022-08-09T23:47:14.856Z,44.54
2022-08-09T23:52:17.714Z,44.18
2022-08-09T23:57:20.546Z,44.75
